Time;durP1;ratioP1;P1;durP2;ratioP2;P2;SDS_P1;SDS_P2;PMS_P1;PMS_P2;Temp;Humidity;BMP_temperature;BMP_pressure;BME280_temperature;BME280_humidity;BME280_pressure;Samples;Min_cycle;Max_cycle;Signal;HPM_P1;HPM_P2
2022/02/17 00:00:00;;;;;;;1.27;0.43;;;;;;;;;;4998619;28;20098;-61
2022/02/17 00:02:25;;;;;;;0.20;0.20;;;;;;;;;;4998569;28;20338;-58
2022/02/17 00:04:52;;;;;;;1.60;0.20;;;;;;;;;;5000922;28;20180;-60
2022/02/17 00:07:17;;;;;;;0.08;0.08;;;;;;;;;;4999055;28;20086;-60
2022/02/17 00:09:42;;;;;;;0.10;0.10;;;;;;;;;;5001536;28;20606;-60
2022/02/17 00:12:07;;;;;;;0.33;0.27;;;;;;;;;;5002514;28;20563;-61
2022/02/17 00:14:33;;;;;;;0.20;0.08;;;;;;;;;;4990294;28;20271;-60
2022/02/17 00:16:58;;;;;;;0.10;0.10;;;;;;;;;;4989660;28;20102;-60
2022/02/17 00:19:23;;;;;;;9.20;0.50;;;;;;;;;;4990404;28;20070;-60
2022/02/17 00:21:49;;;;;;;10.97;0.57;;;;;;;;;;4996699;28;20149;-58
2022/02/17 00:24:15;;;;;;;1.05;0.32;;;;;;;;;;4999371;28;20587;-62
2022/02/17 00:26:40;;;;;;;0.00;0.00;;;;;;;;;;5016102;28;20081;-61
2022/02/17 00:29:05;;;;;;;1.50;0.22;;;;;;;;;;4991627;28;20117;-61
2022/02/17 00:31:30;;;;;;;0.40;0.30;;;;;;;;;;5008708;28;20098;-59
2022/02/17 00:33:56;;;;;;;1.30;0.27;;;;;;;;;;4995033;28;20090;-63
2022/02/17 00:36:21;;;;;;;5.77;0.60;;;;;;;;;;5000361;28;20117;-62
2022/02/17 00:38:46;;;;;;;2.00;0.20;;;;;;;;;;5002936;28;20066;-63
2022/02/17 00:41:11;;;;;;;0.10;0.10;;;;;;;;;;5001317;28;20122;-64
2022/02/17 00:43:37;;;;;;;3.43;0.37;;;;;;;;;;4990473;28;20136;-65
2022/02/17 00:46:02;;;;;;;5.20;0.40;;;;;;;;;;5001302;28;20376;-62
2022/02/17 00:48:27;;;;;;;0.17;0.17;;;;;;;;;;4996904;28;20345;-62
2022/02/17 00:50:52;;;;;;;4.05;0.38;;;;;;;;;;5004260;28;20479;-63
2022/02/17 00:53:18;;;;;;;0.60;0.30;;;;;;;;;;4991855;28;20145;-62
2022/02/17 00:55:43;;;;;;;0.20;0.20;;;;;;;;;;5000294;28;20114;-63
2022/02/17 00:58:08;;;;;;;0.87;0.27;;;;;;;;;;5003754;28;20417;-63
2022/02/17 01:00:33;;;;;;;0.17;0.17;;;;;;;;;;4994570;28;20102;-63
2022/02/17 01:02:58;;;;;;;0.17;0.17;;;;;;;;;;5006800;28;20074;-63
2022/02/17 01:05:24;;;;;;;0.17;0.17;;;;;;;;;;4998348;28;20098;-62
2022/02/17 01:07:49;;;;;;;0.13;0.13;;;;;;;;;;5002770;28;20094;-60
2022/02/17 01:10:14;;;;;;;0.30;0.30;;;;;;;;;;5013593;28;20577;-62
2022/02/17 01:12:39;;;;;;;0.10;0.10;;;;;;;;;;5003009;28;20865;-62
2022/02/17 01:15:05;;;;;;;0.60;0.20;;;;;;;;;;4996038;28;20321;-62
2022/02/17 01:17:30;;;;;;;0.43;0.30;;;;;;;;;;5005859;28;20193;-62
2022/02/17 01:19:56;;;;;;;1.07;0.20;;;;;;;;;;5006049;28;20090;-62
2022/02/17 01:22:21;;;;;;;1.20;0.20;;;;;;;;;;5005831;28;20122;-61
2022/02/17 01:24:46;;;;;;;0.67;0.40;;;;;;;;;;5005596;28;20121;-61
2022/02/17 01:27:11;;;;;;;0.30;0.30;;;;;;;;;;4996584;28;20125;-61
2022/02/17 01:29:37;;;;;;;0.30;0.10;;;;;;;;;;5002086;28;20286;-61
2022/02/17 01:32:03;;;;;;;0.93;0.30;;;;;;;;;;4998841;28;20091;-61
2022/02/17 01:34:28;;;;;;;1.13;0.40;;;;;;;;;;4999842;28;20132;-61
2022/02/17 01:36:53;;;;;;;0.63;0.50;;;;;;;;;;4999220;28;20455;-62
2022/02/17 01:39:18;;;;;;;0.20;0.20;;;;;;;;;;4998772;28;20076;-62
2022/02/17 01:41:44;;;;;;;0.73;0.23;;;;;;;;;;4996061;28;20075;-62
2022/02/17 01:44:09;;;;;;;0.97;0.37;;;;;;;;;;5004004;28;20513;-62
2022/02/17 01:46:35;;;;;;;0.20;0.10;;;;;;;;;;5004394;28;20459;-61
2022/02/17 01:49:01;;;;;;;0.43;0.30;;;;;;;;;;4993880;28;20555;-62
2022/02/17 01:51:26;;;;;;;0.40;0.40;;;;;;;;;;5005432;28;20349;-62
2022/02/17 01:53:51;;;;;;;2.27;0.60;;;;;;;;;;4994622;28;20154;-61
2022/02/17 01:56:16;;;;;;;2.20;0.80;;;;;;;;;;5003753;28;20441;-61
2022/02/17 01:58:42;;;;;;;6.18;1.08;;;;;;;;;;5001319;28;20145;-61
2022/02/17 02:01:07;;;;;;;3.23;1.37;;;;;;;;;;5005234;28;20117;-61
2022/02/17 02:03:33;;;;;;;4.13;1.10;;;;;;;;;;4991783;28;20121;-61
2022/02/17 02:05:58;;;;;;;3.77;1.20;;;;;;;;;;5010525;28;20075;-61
2022/02/17 02:08:23;;;;;;;3.30;1.30;;;;;;;;;;4997920;28;20102;-61
2022/02/17 02:10:48;;;;;;;4.40;1.53;;;;;;;;;;5013233;28;20346;-61
2022/02/17 02:13:14;;;;;;;3.30;1.08;;;;;;;;;;5003434;28;20106;-61
2022/02/17 02:15:52;;;;;;;2.90;1.07;;;;;;;;;;4997975;28;20129;-62
2022/02/17 02:18:17;;;;;;;3.50;1.10;;;;;;;;;;5005115;28;20552;-61
2022/02/17 02:20:46;;;;;;;4.70;1.65;;;;;;;;;;4995049;28;20118;-61
2022/02/17 02:23:11;;;;;;;5.47;1.45;;;;;;;;;;5001108;28;20502;-62
2022/02/17 02:25:37;;;;;;;3.43;1.70;;;;;;;;;;4997225;28;20083;-61
2022/02/17 02:28:02;;;;;;;4.72;1.77;;;;;;;;;;5002418;28;20132;-61
2022/02/17 02:30:27;;;;;;;5.30;1.50;;;;;;;;;;4998963;28;20154;-61
2022/02/17 02:32:52;;;;;;;6.40;1.97;;;;;;;;;;4997539;28;20106;-61
2022/02/17 02:35:17;;;;;;;5.43;1.88;;;;;;;;;;4991425;28;20125;-62
2022/02/17 02:37:43;;;;;;;3.83;1.70;;;;;;;;;;5000434;28;20091;-61
2022/02/17 02:40:08;;;;;;;7.17;2.07;;;;;;;;;;5000269;28;20141;-61
2022/02/17 02:42:33;;;;;;;6.95;2.20;;;;;;;;;;4992923;28;20098;-61
2022/02/17 02:44:59;;;;;;;9.23;2.80;;;;;;;;;;5004367;28;20105;-60
2022/02/17 02:47:24;;;;;;;7.37;2.50;;;;;;;;;;4993865;28;20089;-61
2022/02/17 02:49:49;;;;;;;9.07;2.87;;;;;;;;;;5015223;28;20088;-61
2022/02/17 02:52:14;;;;;;;11.53;3.27;;;;;;;;;;5005275;28;20098;-60
2022/02/17 02:54:40;;;;;;;10.50;3.07;;;;;;;;;;4997879;28;20097;-61
2022/02/17 02:57:05;;;;;;;11.20;3.58;;;;;;;;;;5002851;28;20115;-59
2022/02/17 02:59:30;;;;;;;12.83;3.57;;;;;;;;;;4995429;28;20132;-60
2022/02/17 03:01:55;;;;;;;11.20;3.08;;;;;;;;;;5009665;28;20438;-60
2022/02/17 03:04:21;;;;;;;14.40;3.50;;;;;;;;;;4995476;28;20102;-60
2022/02/17 03:06:46;;;;;;;13.90;3.83;;;;;;;;;;5000337;28;20378;-60
2022/02/17 03:09:12;;;;;;;11.10;3.20;;;;;;;;;;5015940;28;20102;-59
2022/02/17 03:11:37;;;;;;;12.73;3.40;;;;;;;;;;5001155;28;20101;-60
2022/02/17 03:14:03;;;;;;;9.37;2.87;;;;;;;;;;5005703;28;20363;-60
2022/02/17 03:16:28;;;;;;;13.60;3.85;;;;;;;;;;4997332;28;20138;-59
2022/02/17 03:18:54;;;;;;;15.27;4.50;;;;;;;;;;5003508;28;20073;-59
2022/02/17 03:21:19;;;;;;;14.55;3.33;;;;;;;;;;4996604;28;20364;-59
2022/02/17 03:23:44;;;;;;;14.17;3.27;;;;;;;;;;5002979;28;20160;-59
2022/02/17 03:26:10;;;;;;;14.68;4.18;;;;;;;;;;5004852;28;20450;-58
2022/02/17 03:28:35;;;;;;;18.00;4.37;;;;;;;;;;4991300;28;20097;-58
2022/02/17 03:31:00;;;;;;;17.57;4.20;;;;;;;;;;5012295;28;20359;-58
2022/02/17 03:33:25;;;;;;;15.52;4.05;;;;;;;;;;5000992;28;20361;-58
2022/02/17 03:35:51;;;;;;;16.90;4.30;;;;;;;;;;4995780;28;20130;-59
2022/02/17 03:38:16;;;;;;;19.70;4.33;;;;;;;;;;4996920;28;20853;-59
2022/02/17 03:40:41;;;;;;;18.37;3.17;;;;;;;;;;4998563;28;20399;-59
2022/02/17 03:43:06;;;;;;;16.43;3.93;;;;;;;;;;4996489;28;20345;-58
2022/02/17 03:45:32;;;;;;;18.03;4.10;;;;;;;;;;5002996;28;20426;-58
2022/02/17 03:47:57;;;;;;;16.13;4.40;;;;;;;;;;4990294;28;20118;-58
2022/02/17 03:50:22;;;;;;;17.30;4.33;;;;;;;;;;4996691;28;20310;-59
2022/02/17 03:52:47;;;;;;;15.37;3.80;;;;;;;;;;4996396;28;20105;-58
2022/02/17 03:55:14;;;;;;;20.90;3.87;;;;;;;;;;4989981;28;20353;-58
2022/02/17 03:57:39;;;;;;;15.18;3.78;;;;;;;;;;4990113;28;20486;-59
2022/02/17 04:00:05;;;;;;;15.03;3.20;;;;;;;;;;4996124;28;20186;-59
2022/02/17 04:02:30;;;;;;;19.27;4.55;;;;;;;;;;4997099;28;20153;-59
2022/02/17 04:04:55;;;;;;;17.43;4.37;;;;;;;;;;4989893;28;20495;-58
2022/02/17 04:07:20;;;;;;;22.23;5.17;;;;;;;;;;4990078;28;20492;-59
2022/02/17 04:09:46;;;;;;;26.50;6.23;;;;;;;;;;5002718;28;20094;-59
2022/02/17 04:12:12;;;;;;;19.87;4.43;;;;;;;;;;5002356;28;20353;-59
2022/02/17 04:14:37;;;;;;;18.35;4.63;;;;;;;;;;4996071;28;20106;-59
2022/02/17 04:17:02;;;;;;;25.67;5.47;;;;;;;;;;4989358;28;20103;-59
2022/02/17 04:19:30;;;;;;;25.10;5.30;;;;;;;;;;4996242;28;20094;-59
2022/02/17 04:21:55;;;;;;;27.30;5.03;;;;;;;;;;4996173;28;20118;-59
2022/02/17 04:24:20;;;;;;;24.48;4.97;;;;;;;;;;4989733;28;20542;-59
2022/02/17 04:26:46;;;;;;;24.70;5.50;;;;;;;;;;4992398;28;20432;-59
2022/02/17 04:29:11;;;;;;;19.67;4.80;;;;;;;;;;4991162;28;20099;-59
2022/02/17 04:31:36;;;;;;;21.33;4.70;;;;;;;;;;4990381;28;20125;-59
2022/02/17 04:34:01;;;;;;;23.73;5.37;;;;;;;;;;4985313;28;20145;-59
2022/02/17 04:36:27;;;;;;;21.10;5.43;;;;;;;;;;4994542;28;20579;-59
2022/02/17 04:38:52;;;;;;;24.95;5.95;;;;;;;;;;4998331;28;20337;-59
2022/02/17 04:44:01;;;;;;;22.08;5.20;;;;;;;;;;4990870;28;20109;-58
2022/02/17 04:46:26;;;;;;;26.53;4.87;;;;;;;;;;4984648;28;20074;-58
2022/02/17 04:48:52;;;;;;;25.87;5.57;;;;;;;;;;4990630;28;20557;-59
2022/02/17 04:51:17;;;;;;;20.77;5.03;;;;;;;;;;4982849;28;20558;-59
2022/02/17 04:53:42;;;;;;;19.63;4.70;;;;;;;;;;4990379;28;20349;-59
2022/02/17 04:56:07;;;;;;;20.63;5.27;;;;;;;;;;4981811;28;20992;-59
2022/02/17 04:58:33;;;;;;;22.83;5.53;;;;;;;;;;4990107;28;20091;-59
2022/02/17 05:00:58;;;;;;;20.42;4.80;;;;;;;;;;4983106;28;20225;-59
2022/02/17 05:03:26;;;;;;;25.73;5.80;;;;;;;;;;4986564;28;20208;-59
2022/02/17 05:05:52;;;;;;;20.40;5.25;;;;;;;;;;4995521;28;20073;-59
2022/02/17 05:08:17;;;;;;;22.30;5.35;;;;;;;;;;4997865;28;20120;-59
2022/02/17 05:10:43;;;;;;;24.80;5.40;;;;;;;;;;4999643;28;20553;-59
2022/02/17 05:13:08;;;;;;;22.70;5.67;;;;;;;;;;4995469;28;20483;-59
2022/02/17 05:15:33;;;;;;;27.53;6.27;;;;;;;;;;4995267;28;20333;-59
2022/02/17 05:17:59;;;;;;;27.40;6.07;;;;;;;;;;4995618;28;20333;-59
2022/02/17 05:20:24;;;;;;;26.57;5.90;;;;;;;;;;5001845;28;20102;-59
2022/02/17 05:22:49;;;;;;;22.93;5.60;;;;;;;;;;4999915;28;20070;-59
2022/02/17 05:25:14;;;;;;;23.87;5.97;;;;;;;;;;4996936;28;20563;-57
2022/02/17 05:27:39;;;;;;;28.73;5.93;;;;;;;;;;4993249;28;20337;-58
2022/02/17 05:30:05;;;;;;;18.70;4.70;;;;;;;;;;4997546;28;20122;-57
2022/02/17 05:32:30;;;;;;;22.98;5.43;;;;;;;;;;4993498;28;21011;-58
2022/02/17 05:34:55;;;;;;;23.33;5.47;;;;;;;;;;4989001;28;20092;-59
2022/02/17 05:37:21;;;;;;;27.80;6.20;;;;;;;;;;5009123;28;20848;-58
2022/02/17 05:39:46;;;;;;;35.40;6.03;;;;;;;;;;4994223;28;20344;-59
2022/02/17 05:42:11;;;;;;;29.77;5.07;;;;;;;;;;5001941;28;20298;-59
2022/02/17 05:44:36;;;;;;;22.73;5.57;;;;;;;;;;5010796;28;20529;-59
2022/02/17 05:47:02;;;;;;;29.53;5.93;;;;;;;;;;5005296;28;20490;-60
2022/02/17 05:49:27;;;;;;;31.13;5.75;;;;;;;;;;4995710;28;20584;-59
2022/02/17 05:51:52;;;;;;;29.67;6.57;;;;;;;;;;5004938;28;20101;-59
2022/02/17 05:54:17;;;;;;;28.03;5.23;;;;;;;;;;5005544;28;20082;-59
2022/02/17 05:56:42;;;;;;;31.10;6.73;;;;;;;;;;5005223;28;20501;-59
2022/02/17 05:59:08;;;;;;;25.90;5.63;;;;;;;;;;4996783;28;20106;-58
2022/02/17 06:01:33;;;;;;;23.87;5.00;;;;;;;;;;5000934;28;20140;-58
2022/02/17 06:03:58;;;;;;;31.93;5.87;;;;;;;;;;4999964;28;20130;-58
2022/02/17 06:06:23;;;;;;;29.37;6.17;;;;;;;;;;5005274;28;20110;-59
2022/02/17 06:08:49;;;;;;;26.13;5.83;;;;;;;;;;5000107;28;20349;-59
2022/02/17 06:11:14;;;;;;;30.40;6.43;;;;;;;;;;5004000;28;20136;-59
2022/02/17 06:13:39;;;;;;;25.20;5.57;;;;;;;;;;5004084;28;20194;-60
2022/02/17 06:16:04;;;;;;;32.83;5.97;;;;;;;;;;5004371;28;20188;-59
2022/02/17 06:18:29;;;;;;;32.70;6.65;;;;;;;;;;5018279;28;20504;-59
2022/02/17 06:20:55;;;;;;;21.47;5.60;;;;;;;;;;5004454;28;20113;-60
2022/02/17 06:23:20;;;;;;;23.57;6.13;;;;;;;;;;5004570;28;20094;-59
2022/02/17 06:25:45;;;;;;;23.73;5.85;;;;;;;;;;4994693;28;20086;-60
2022/02/17 06:28:11;;;;;;;28.70;6.87;;;;;;;;;;5014932;28;20290;-60
2022/02/17 06:30:36;;;;;;;35.23;7.73;;;;;;;;;;5004583;28;20317;-60
2022/02/17 06:33:01;;;;;;;25.13;6.13;;;;;;;;;;4991395;28;20688;-59
2022/02/17 06:35:29;;;;;;;32.17;6.60;;;;;;;;;;5002450;28;20407;-60
2022/02/17 06:37:54;;;;;;;26.50;5.80;;;;;;;;;;5003979;28;20765;-59
2022/02/17 06:40:20;;;;;;;33.80;6.25;;;;;;;;;;4998995;28;20213;-58
2022/02/17 06:42:45;;;;;;;29.52;6.03;;;;;;;;;;5004118;28;20604;-58
2022/02/17 06:45:10;;;;;;;34.03;6.77;;;;;;;;;;5000879;28;20098;-57
2022/02/17 06:47:36;;;;;;;32.23;5.93;;;;;;;;;;5011526;28;20919;-59
2022/02/17 06:50:01;;;;;;;31.27;6.70;;;;;;;;;;5002039;28;20568;-59
2022/02/17 06:52:27;;;;;;;30.52;5.80;;;;;;;;;;5002802;28;20110;-58
2022/02/17 06:54:52;;;;;;;33.83;6.03;;;;;;;;;;5007444;28;20164;-59
2022/02/17 06:57:22;;;;;;;40.92;7.18;;;;;;;;;;5013271;28;20611;-58
2022/02/17 06:59:48;;;;;;;31.10;6.30;;;;;;;;;;5003467;28;20108;-58
2022/02/17 07:02:13;;;;;;;33.30;6.65;;;;;;;;;;4992295;28;20079;-59
2022/02/17 07:04:38;;;;;;;31.00;5.50;;;;;;;;;;5001921;28;20138;-59
2022/02/17 07:07:04;;;;;;;32.70;6.88;;;;;;;;;;5004018;28;20169;-59
2022/02/17 07:09:29;;;;;;;43.80;7.43;;;;;;;;;;5002349;28;20156;-59
2022/02/17 07:11:55;;;;;;;34.90;7.23;;;;;;;;;;5009938;28;20153;-59
2022/02/17 07:14:23;;;;;;;28.50;5.88;;;;;;;;;;5000925;28;20535;-59
2022/02/17 07:16:48;;;;;;;17.08;4.30;;;;;;;;;;5004077;28;20113;-59
2022/02/17 07:19:14;;;;;;;32.17;5.70;;;;;;;;;;5001278;28;20614;-59
2022/02/17 07:21:39;;;;;;;27.87;6.47;;;;;;;;;;5001599;28;20598;-59
2022/02/17 07:24:04;;;;;;;22.02;5.47;;;;;;;;;;5002378;28;20425;-59
2022/02/17 07:26:30;;;;;;;19.73;4.95;;;;;;;;;;4990593;28;20070;-59
2022/02/17 07:28:55;;;;;;;20.63;4.35;;;;;;;;;;5007461;28;20102;-59
2022/02/17 07:31:21;;;;;;;18.30;3.80;;;;;;;;;;4991068;28;20181;-60
2022/02/17 07:33:46;;;;;;;22.60;4.50;;;;;;;;;;5004011;28;20345;-59
2022/02/17 07:36:11;;;;;;;25.43;5.40;;;;;;;;;;4995361;28;20657;-59
2022/02/17 07:38:37;;;;;;;28.17;4.87;;;;;;;;;;4996579;28;20495;-60
2022/02/17 07:41:02;;;;;;;16.63;3.73;;;;;;;;;;5000584;28;20184;-59
2022/02/17 07:43:28;;;;;;;16.10;2.42;;;;;;;;;;5014538;28;20482;-60
2022/02/17 07:45:54;;;;;;;15.35;3.65;;;;;;;;;;5002877;28;20767;-59
2022/02/17 07:48:19;;;;;;;11.70;2.97;;;;;;;;;;5002300;28;20113;-57
2022/02/17 07:50:44;;;;;;;14.30;3.43;;;;;;;;;;5001866;28;20325;-58
2022/02/17 07:53:10;;;;;;;27.35;4.97;;;;;;;;;;5001977;28;20760;-57
2022/02/17 07:55:35;;;;;;;25.67;5.07;;;;;;;;;;4999789;28;20108;-57
2022/02/17 07:58:04;;;;;;;25.90;5.73;;;;;;;;;;5002630;28;20120;-57
2022/02/17 08:00:30;;;;;;;30.20;5.65;;;;;;;;;;5001187;28;20353;-56
2022/02/17 08:02:55;;;;;;;27.65;5.75;;;;;;;;;;4994741;28;20516;-57
2022/02/17 08:05:20;;;;;;;43.90;5.68;;;;;;;;;;4995676;28;20098;-57
2022/02/17 08:07:45;;;;;;;6.87;1.50;;;;;;;;;;5001403;28;20113;-63
2022/02/17 08:10:11;;;;;;;10.43;2.23;;;;;;;;;;5005520;28;20078;-64
2022/02/17 08:12:42;;;;;;;21.47;4.10;;;;;;;;;;5002257;28;20147;-63
2022/02/17 08:15:08;;;;;;;16.35;4.07;;;;;;;;;;5002065;28;20070;-62
2022/02/17 08:17:33;;;;;;;23.50;4.68;;;;;;;;;;5000701;28;20067;-63
2022/02/17 08:19:58;;;;;;;29.53;5.60;;;;;;;;;;4996043;28;20188;-63
2022/02/17 08:22:23;;;;;;;24.73;5.23;;;;;;;;;;5004632;28;20149;-62
2022/02/17 08:24:48;;;;;;;23.33;5.37;;;;;;;;;;5000458;28;20110;-63
2022/02/17 08:27:14;;;;;;;29.70;5.93;;;;;;;;;;4999341;28;20193;-63
2022/02/17 08:29:39;;;;;;;32.10;6.90;;;;;;;;;;4988963;28;20419;-63
2022/02/17 08:32:04;;;;;;;43.50;8.33;;;;;;;;;;5013626;28;20155;-63
2022/02/17 08:34:30;;;;;;;34.97;7.13;;;;;;;;;;4989627;28;20605;-63
2022/02/17 08:36:55;;;;;;;22.50;4.50;;;;;;;;;;5001858;28;20152;-63
2022/02/17 08:39:20;;;;;;;33.07;5.63;;;;;;;;;;4999139;28;20086;-63
2022/02/17 08:41:45;;;;;;;27.95;5.88;;;;;;;;;;5007965;28;20323;-63
2022/02/17 08:44:11;;;;;;;30.77;6.70;;;;;;;;;;4995894;28;20609;-63
2022/02/17 08:46:36;;;;;;;39.47;7.75;;;;;;;;;;5001100;28;20382;-63
2022/02/17 08:49:01;;;;;;;23.25;5.28;;;;;;;;;;4995998;28;20096;-63
2022/02/17 08:51:29;;;;;;;26.03;5.67;;;;;;;;;;4987750;28;20097;-63
2022/02/17 08:53:55;;;;;;;12.98;3.05;;;;;;;;;;4981327;28;20104;-63
2022/02/17 08:56:20;;;;;;;17.65;3.85;;;;;;;;;;4989384;28;20589;-63
2022/02/17 08:58:46;;;;;;;30.57;5.23;;;;;;;;;;4984502;28;20538;-63
2022/02/17 09:01:11;;;;;;;28.53;5.80;;;;;;;;;;5000275;28;20567;-64
2022/02/17 09:03:36;;;;;;;17.57;3.90;;;;;;;;;;4996608;28;20763;-63
2022/02/17 09:06:01;;;;;;;25.00;4.00;;;;;;;;;;4996945;28;20290;-64
2022/02/17 09:08:27;;;;;;;14.50;3.90;;;;;;;;;;4991650;28;20421;-63
2022/02/17 09:10:53;;;;;;;20.00;3.53;;;;;;;;;;4995607;28;20382;-63
2022/02/17 09:13:19;;;;;;;25.48;3.95;;;;;;;;;;4990082;28;20873;-63
2022/02/17 09:15:44;;;;;;;25.33;4.70;;;;;;;;;;4980562;28;20178;-63
2022/02/17 09:18:09;;;;;;;28.70;5.37;;;;;;;;;;4994230;28;20562;-63
2022/02/17 09:20:36;;;;;;;21.83;4.60;;;;;;;;;;4991997;28;20125;-63
2022/02/17 09:23:01;;;;;;;29.13;5.32;;;;;;;;;;4994402;28;20071;-63
2022/02/17 09:25:27;;;;;;;32.33;6.13;;;;;;;;;;4993419;28;20406;-63
2022/02/17 09:27:52;;;;;;;26.13;5.27;;;;;;;;;;5000183;28;20447;-63
2022/02/17 09:30:17;;;;;;;21.77;4.63;;;;;;;;;;4999285;28;20321;-62
2022/02/17 09:32:42;;;;;;;28.73;5.70;;;;;;;;;;5000014;28;20336;-63
2022/02/17 09:35:11;;;;;;;32.78;6.80;;;;;;;;;;4998986;28;20132;-63
2022/02/17 09:37:36;;;;;;;35.33;6.43;;;;;;;;;;4995137;28;20107;-62
2022/02/17 09:40:03;;;;;;;20.10;4.40;;;;;;;;;;4999816;28;20311;-62
2022/02/17 09:42:35;;;;;;;13.55;3.47;;;;;;;;;;4993324;28;20832;-62
2022/02/17 09:45:00;;;;;;;19.27;3.97;;;;;;;;;;4988110;28;20518;-63
2022/02/17 09:47:26;;;;;;;19.63;4.50;;;;;;;;;;4998826;28;20074;-63
2022/02/17 09:49:51;;;;;;;26.70;4.37;;;;;;;;;;4989283;28;20732;-62
2022/02/17 09:52:16;;;;;;;18.33;4.53;;;;;;;;;;4996943;28;20364;-62
2022/02/17 09:54:41;;;;;;;20.43;4.47;;;;;;;;;;4995158;28;20081;-62
2022/02/17 09:57:07;;;;;;;36.03;7.47;;;;;;;;;;5001076;28;20134;-62
2022/02/17 09:59:32;;;;;;;18.57;4.33;;;;;;;;;;4986458;28;20313;-62
2022/02/17 10:01:59;;;;;;;27.02;5.78;;;;;;;;;;5000001;28;20305;-62
2022/02/17 10:04:25;;;;;;;33.30;7.05;;;;;;;;;;4986484;28;20105;-62
2022/02/17 10:06:57;;;;;;;24.25;5.13;;;;;;;;;;5000258;28;20607;-61
2022/02/17 10:09:24;;;;;;;32.53;6.95;;;;;;;;;;4997635;28;20101;-61
2022/02/17 10:11:51;;;;;;;29.27;5.97;;;;;;;;;;4998224;28;20178;-61
2022/02/17 10:14:17;;;;;;;34.45;6.53;;;;;;;;;;4998624;28;20407;-61
2022/02/17 10:17:00;;;;;;;30.15;6.05;;;;;;;;;;4991370;28;20502;-62
2022/02/17 10:19:32;;;;;;;31.33;6.07;;;;;;;;;;4984774;28;20066;-62
2022/02/17 10:22:01;;;;;;;33.90;6.82;;;;;;;;;;4997829;28;20547;-62
2022/02/17 10:24:34;;;;;;;36.80;6.47;;;;;;;;;;4994725;28;20126;-61
2022/02/17 10:27:09;;;;;;;30.90;6.88;;;;;;;;;;4996534;28;20574;-62
2022/02/17 10:29:34;;;;;;;29.50;6.65;;;;;;;;;;4996050;28;20109;-62
2022/02/17 10:32:06;;;;;;;23.77;4.97;;;;;;;;;;4999544;28;20645;-62
2022/02/17 10:34:32;;;;;;;21.45;5.15;;;;;;;;;;4988926;28;20459;-62
2022/02/17 10:36:57;;;;;;;25.55;5.38;;;;;;;;;;4987186;28;20106;-61
2022/02/17 10:39:22;;;;;;;27.90;5.30;;;;;;;;;;5000733;28;20335;-61
2022/02/17 10:41:50;;;;;;;19.23;4.80;;;;;;;;;;4998413;28;20161;-61
2022/02/17 10:44:16;;;;;;;31.25;6.75;;;;;;;;;;4996997;28;20114;-61
2022/02/17 10:46:41;;;;;;;21.02;5.00;;;;;;;;;;4986216;28;20083;-61
2022/02/17 10:49:10;;;;;;;25.65;5.45;;;;;;;;;;4994111;28;20112;-61
2022/02/17 10:51:35;;;;;;;24.98;5.63;;;;;;;;;;4999196;28;20098;-61
2022/02/17 10:54:01;;;;;;;28.53;5.90;;;;;;;;;;4998661;28;21260;-62
2022/02/17 10:56:28;;;;;;;20.93;5.17;;;;;;;;;;4998281;28;20110;-62
2022/02/17 10:58:53;;;;;;;23.33;5.40;;;;;;;;;;4996442;28;21037;-62
2022/02/17 11:01:19;;;;;;;18.90;4.90;;;;;;;;;;4997694;28;20172;-58
2022/02/17 11:03:44;;;;;;;19.80;4.85;;;;;;;;;;4998552;28;20662;-58
2022/02/17 11:06:10;;;;;;;19.42;4.18;;;;;;;;;;4998980;28;20444;-58
2022/02/17 11:08:35;;;;;;;25.17;5.50;;;;;;;;;;4996409;28;20102;-58
2022/02/17 11:11:01;;;;;;;19.80;4.80;;;;;;;;;;4998981;28;20094;-58
2022/02/17 11:13:26;;;;;;;27.08;5.88;;;;;;;;;;4994633;28;20448;-60
2022/02/17 11:15:52;;;;;;;21.10;4.82;;;;;;;;;;4998178;28;20276;-61
2022/02/17 11:18:18;;;;;;;21.02;4.85;;;;;;;;;;4997349;28;20526;-61
2022/02/17 11:20:43;;;;;;;13.20;3.97;;;;;;;;;;4991457;28;20110;-61
2022/02/17 11:23:08;;;;;;;24.27;4.22;;;;;;;;;;4997753;28;20207;-61
2022/02/17 11:25:34;;;;;;;24.70;5.43;;;;;;;;;;4998919;28;20095;-61
2022/02/17 11:28:07;;;;;;;20.70;4.70;;;;;;;;;;4998728;28;20113;-61
2022/02/17 11:30:33;;;;;;;22.33;4.88;;;;;;;;;;5000684;28;20417;-61
2022/02/17 11:33:10;;;;;;;20.65;4.30;;;;;;;;;;5007874;28;20108;-61
2022/02/17 11:35:36;;;;;;;18.55;4.50;;;;;;;;;;4997825;28;20082;-61
2022/02/17 11:38:01;;;;;;;18.10;3.93;;;;;;;;;;4998494;28;20093;-61
2022/02/17 11:40:26;;;;;;;19.00;4.40;;;;;;;;;;4998685;28;20121;-61
2022/02/17 11:43:02;;;;;;;19.70;4.30;;;;;;;;;;4991647;28;20098;-61
2022/02/17 11:45:27;;;;;;;18.52;3.95;;;;;;;;;;4995019;28;20356;-61
2022/02/17 11:48:03;;;;;;;17.73;4.65;;;;;;;;;;5001443;28;20098;-60
2022/02/17 11:50:35;;;;;;;20.45;4.18;;;;;;;;;;5003363;28;20084;-61
2022/02/17 11:53:19;;;;;;;19.48;5.35;;;;;;;;;;4998384;28;20225;-61
2022/02/17 11:55:44;;;;;;;16.23;4.00;;;;;;;;;;4996905;28;20102;-61
2022/02/17 11:58:28;;;;;;;18.47;4.83;;;;;;;;;;4997756;28;20085;-60
2022/02/17 12:00:53;;;;;;;17.23;4.30;;;;;;;;;;4998304;28;20345;-60
2022/02/17 12:03:45;;;;;;;21.33;5.27;;;;;;;;;;4990463;28;20086;-61
2022/02/17 12:06:29;;;;;;;17.85;4.78;;;;;;;;;;4974764;28;20086;-60
2022/02/17 12:08:54;;;;;;;16.70;4.32;;;;;;;;;;4995445;28;20129;-60
2022/02/17 12:11:31;;;;;;;10.77;2.13;;;;;;;;;;4990317;28;20131;-61
2022/02/17 12:13:56;;;;;;;15.55;3.35;;;;;;;;;;4993749;28;20184;-60
2022/02/17 12:16:31;;;;;;;14.70;3.88;;;;;;;;;;4990531;28;20186;-60
2022/02/17 12:18:57;;;;;;;13.57;3.42;;;;;;;;;;4991400;28;20567;-61
2022/02/17 12:21:22;;;;;;;13.07;3.33;;;;;;;;;;4987798;28;20173;-60
2022/02/17 12:23:47;;;;;;;16.08;3.35;;;;;;;;;;4995550;28;20124;-61
2022/02/17 12:26:13;;;;;;;18.00;3.50;;;;;;;;;;4999068;28;20185;-58
2022/02/17 12:28:38;;;;;;;17.50;3.40;;;;;;;;;;5010207;28;20098;-61
2022/02/17 12:31:04;;;;;;;13.13;3.23;;;;;;;;;;5001869;28;20621;-60
2022/02/17 12:33:31;;;;;;;12.88;3.05;;;;;;;;;;5006602;28;20095;-61
2022/02/17 12:36:15;;;;;;;13.85;3.45;;;;;;;;;;4996146;28;20531;-61
2022/02/17 12:38:40;;;;;;;10.45;3.25;;;;;;;;;;4990116;28;20079;-60
2022/02/17 12:41:06;;;;;;;12.13;3.08;;;;;;;;;;4995408;28;20113;-61
2022/02/17 12:43:32;;;;;;;11.68;3.22;;;;;;;;;;4986759;28;20099;-61
2022/02/17 12:45:58;;;;;;;17.55;3.40;;;;;;;;;;5005492;28;20235;-61
2022/02/17 12:48:26;;;;;;;14.63;3.30;;;;;;;;;;4986710;28;20194;-61
2022/02/17 12:50:51;;;;;;;14.32;3.35;;;;;;;;;;4995742;28;20104;-61
2022/02/17 12:53:16;;;;;;;15.37;3.27;;;;;;;;;;4988737;28;20527;-59
2022/02/17 12:55:45;;;;;;;13.97;3.27;;;;;;;;;;4999819;28;20185;-60
2022/02/17 12:58:10;;;;;;;;;;;;;;;;;;5001018;28;20140;-59
2022/02/17 13:00:36;;;;;;;12.73;3.27;;;;;;;;;;4994198;28;19986;-61
2022/02/17 13:03:01;;;;;;;18.03;3.97;;;;;;;;;;4992301;28;20102;-61
2022/02/17 13:05:27;;;;;;;20.27;3.73;;;;;;;;;;4992466;28;20403;-61
2022/02/17 13:07:54;;;;;;;17.25;4.13;;;;;;;;;;5001987;28;20106;-61
2022/02/17 13:10:19;;;;;;;17.73;4.57;;;;;;;;;;5001988;28;20128;-60
2022/02/17 13:12:57;;;;;;;12.57;3.77;;;;;;;;;;5007332;28;20211;-60
2022/02/17 13:15:22;;;;;;;15.63;3.42;;;;;;;;;;5011006;28;20096;-61
2022/02/17 13:17:47;;;;;;;17.20;4.10;;;;;;;;;;5000571;28;20531;-60
2022/02/17 13:20:25;;;;;;;17.40;4.10;;;;;;;;;;5010359;28;20106;-60
2022/02/17 13:22:50;;;;;;;14.13;3.80;;;;;;;;;;5000430;28;20443;-60
2022/02/17 13:25:16;;;;;;;20.27;4.23;;;;;;;;;;5005439;28;20117;-60
2022/02/17 13:27:41;;;;;;;16.30;3.27;;;;;;;;;;4999634;28;20423;-61
2022/02/17 13:30:10;;;;;;;14.60;3.50;;;;;;;;;;5004294;28;20159;-60
2022/02/17 13:32:39;;;;;;;18.58;3.95;;;;;;;;;;4994376;28;20098;-60
2022/02/17 13:35:07;;;;;;;19.83;4.33;;;;;;;;;;4995357;28;20632;-60
2022/02/17 13:37:42;;;;;;;19.40;4.32;;;;;;;;;;5000380;28;20094;-60
2022/02/17 13:40:08;;;;;;;18.50;4.03;;;;;;;;;;4999013;28;20200;-60
2022/02/17 13:42:33;;;;;;;19.00;4.38;;;;;;;;;;5000025;28;20547;-61
2022/02/17 13:44:59;;;;;;;14.40;3.80;;;;;;;;;;4998086;28;20458;-60
2022/02/17 13:47:33;;;;;;;12.10;3.40;;;;;;;;;;5009946;28;20083;-60
2022/02/17 13:49:59;;;;;;;11.45;3.00;;;;;;;;;;4990704;28;20120;-61
2022/02/17 13:52:28;;;;;;;13.45;3.42;;;;;;;;;;5000707;28;20185;-60
2022/02/17 13:54:53;;;;;;;;;;;;;;;;;;4989425;28;20074;-61
2022/02/17 13:57:19;;;;;;;11.37;2.77;;;;;;;;;;5005553;28;20012;-60
2022/02/17 13:59:44;;;;;;;9.23;2.90;;;;;;;;;;5015264;28;20104;-61
2022/02/17 14:02:10;;;;;;;8.48;2.70;;;;;;;;;;4999215;28;20173;-60
2022/02/17 14:04:36;;;;;;;10.93;2.55;;;;;;;;;;5002197;28;20632;-60
2022/02/17 14:07:01;;;;;;;8.02;2.45;;;;;;;;;;5013369;28;20093;-62
2022/02/17 14:09:27;;;;;;;10.27;2.72;;;;;;;;;;5000074;28;20425;-60
2022/02/17 14:11:52;;;;;;;16.03;2.83;;;;;;;;;;4999569;28;20481;-60
2022/02/17 14:14:17;;;;;;;10.82;2.45;;;;;;;;;;5001417;28;20811;-60
2022/02/17 14:16:44;;;;;;;7.38;2.40;;;;;;;;;;5005614;28;20091;-59
2022/02/17 14:19:09;;;;;;;10.65;2.47;;;;;;;;;;4986581;28;20063;-61
2022/02/17 14:21:36;;;;;;;10.18;2.20;;;;;;;;;;4999430;28;20157;-61
2022/02/17 14:24:02;;;;;;;11.77;2.55;;;;;;;;;;5008186;28;20118;-61
2022/02/17 14:26:27;;;;;;;7.70;1.90;;;;;;;;;;4999512;28;20090;-61
2022/02/17 14:28:53;;;;;;;10.67;2.70;;;;;;;;;;5010473;28;20410;-61